createdAt,value
2022-11-12T00:00:21.851Z,4.82
2022-11-12T00:03:09.118Z,6.97
2022-11-12T00:05:56.088Z,4.65
2022-11-12T00:08:43.859Z,4.70
2022-11-12T00:11:32.614Z,8.80
2022-11-12T00:14:21.794Z,7.55
2022-11-12T00:17:08.993Z,5.00
2022-11-12T00:19:56.814Z,5.38
2022-11-12T00:22:43.783Z,5.25
2022-11-12T00:25:32.582Z,7.03
2022-11-12T00:28:22.637Z,7.22
2022-11-12T00:31:12.488Z,8.10
2022-11-12T00:34:01.334Z,9.82
2022-11-12T00:36:52.619Z,3.72
2022-11-12T00:39:39.967Z,8.98
2022-11-12T00:42:27.989Z,5.40
2022-11-12T00:45:17.156Z,7.32
2022-11-12T00:48:07.435Z,5.77
2022-11-12T00:51:02.122Z,6.35
2022-11-12T00:53:49.009Z,5.75
2022-11-12T00:56:37.951Z,6.53
2022-11-12T00:59:25.903Z,5.55
2022-11-12T01:02:15.678Z,7.95
2022-11-12T01:05:02.328Z,5.88
2022-11-12T01:07:55.766Z,6.63
2022-11-12T01:10:45.325Z,5.85
2022-11-12T01:13:33.916Z,6.53
2022-11-12T01:16:25.668Z,6.82
2022-11-12T01:22:04.038Z,5.28
2022-11-12T01:24:53.280Z,6.65
2022-11-12T01:27:40.836Z,8.65
2022-11-12T01:30:28.393Z,5.90
2022-11-12T01:33:17.105Z,5.22
2022-11-12T01:36:10.236Z,5.63
2022-11-12T01:39:00.846Z,4.97
2022-11-12T01:41:48.987Z,7.05
2022-11-12T01:44:40.002Z,5.13
2022-11-12T01:47:31.710Z,5.47
2022-11-12T01:50:24.221Z,10.10
2022-11-12T01:53:14.405Z,6.75
2022-11-12T01:56:03.815Z,6.70
2022-11-12T01:58:57.079Z,4.93
2022-11-12T02:01:46.509Z,7.32
2022-11-12T02:04:34.934Z,6.03
2022-11-12T02:07:24.745Z,6.07
2022-11-12T02:13:21.341Z,8.48
2022-11-12T02:16:10.177Z,5.47
2022-11-12T02:18:58.039Z,7.60
2022-11-12T02:21:46.647Z,5.28
2022-11-12T02:24:37.425Z,8.52
2022-11-12T02:27:26.552Z,3.83
2022-11-12T02:30:15.606Z,5.65
2022-11-12T02:33:03.834Z,4.47
2022-11-12T02:35:50.645Z,4.57
2022-11-12T02:38:38.709Z,4.70
2022-11-12T02:41:27.875Z,7.25
2022-11-12T02:44:16.263Z,15.05
2022-11-12T02:47:02.892Z,6.55
2022-11-12T02:49:51.818Z,5.68
2022-11-12T02:52:39.999Z,6.13
2022-11-12T02:55:28.032Z,10.52
2022-11-12T02:58:16.695Z,8.20
2022-11-12T03:01:03.773Z,5.43
2022-11-12T03:03:51.765Z,5.00
2022-11-12T03:06:39.580Z,5.15
2022-11-12T03:09:26.297Z,6.00
2022-11-12T03:12:14.703Z,6.20
2022-11-12T03:15:01.928Z,4.70
2022-11-12T03:17:49.451Z,6.30
2022-11-12T03:20:36.614Z,4.85
2022-11-12T03:23:24.878Z,5.88
2022-11-12T03:26:12.613Z,5.05
2022-11-12T03:29:04.244Z,5.90
2022-11-12T03:31:52.371Z,4.03
2022-11-12T03:34:41.937Z,4.20
2022-11-12T03:37:37.833Z,5.65
2022-11-12T03:40:25.831Z,3.90
2022-11-12T03:43:13.267Z,4.03
2022-11-12T03:46:16.872Z,6.20
2022-11-12T03:49:28.964Z,7.88
2022-11-12T03:52:15.970Z,6.03
2022-11-12T03:55:02.834Z,4.15
2022-11-12T03:57:52.399Z,3.83
2022-11-12T04:00:41.516Z,6.78
2022-11-12T04:03:30.049Z,5.60
2022-11-12T04:06:34.615Z,3.75
2022-11-12T04:09:21.562Z,3.45
2022-11-12T04:12:23.255Z,3.03
2022-11-12T04:15:13.629Z,3.45
2022-11-12T04:18:19.177Z,2.00
2022-11-12T04:21:28.913Z,2.70
2022-11-12T04:27:19.009Z,4.28
2022-11-12T04:30:24.240Z,1.98
2022-11-12T04:33:13.964Z,2.08
2022-11-12T04:36:04.579Z,2.25
2022-11-12T04:38:52.926Z,2.72
2022-11-12T04:41:57.798Z,3.58
2022-11-12T04:45:03.881Z,2.70
2022-11-12T04:47:53.111Z,2.90
2022-11-12T04:50:55.549Z,2.05
2022-11-12T04:53:43.264Z,3.92
2022-11-12T04:56:33.713Z,2.65
2022-11-12T04:59:22.157Z,1.85
2022-11-12T05:02:09.689Z,3.78
2022-11-12T05:04:56.747Z,2.38
2022-11-12T05:07:44.332Z,2.55
2022-11-12T05:10:32.111Z,3.50
2022-11-12T05:13:20.828Z,2.88
2022-11-12T05:16:08.455Z,2.50
2022-11-12T05:18:55.393Z,2.80
2022-11-12T05:22:02.299Z,4.95
2022-11-12T05:24:53.134Z,4.45
2022-11-12T05:27:39.927Z,2.30
2022-11-12T05:30:29.271Z,4.05
2022-11-12T05:33:16.785Z,4.28
2022-11-12T05:36:03.744Z,3.47
2022-11-12T05:38:50.916Z,8.32
2022-11-12T05:42:05.800Z,1.63
2022-11-12T05:44:46.566Z,2.28
2022-11-12T05:47:36.461Z,3.80
2022-11-12T05:50:23.632Z,2.70
2022-11-12T05:53:11.313Z,3.35
2022-11-12T05:56:03.544Z,3.00
2022-11-12T05:58:54.731Z,2.60
2022-11-12T06:01:45.004Z,4.32
2022-11-12T06:04:34.360Z,4.25
2022-11-12T06:07:22.830Z,4.53
2022-11-12T06:10:13.682Z,10.57
2022-11-12T06:13:03.896Z,3.80
2022-11-12T06:15:52.081Z,3.38
2022-11-12T06:18:39.352Z,2.10
2022-11-12T06:21:28.823Z,4.07
2022-11-12T06:24:16.051Z,6.38
2022-11-12T06:27:04.017Z,2.78
2022-11-12T06:29:51.067Z,8.27
2022-11-12T06:32:38.643Z,3.65
2022-11-12T06:35:49.712Z,2.30
2022-11-12T06:38:39.993Z,2.88
2022-11-12T06:41:28.431Z,1.80
2022-11-12T06:44:22.149Z,2.58
2022-11-12T06:47:10.034Z,2.28
2022-11-12T06:49:57.642Z,4.45
2022-11-12T06:52:44.913Z,2.10
2022-11-12T06:55:33.567Z,2.85
2022-11-12T06:58:20.797Z,7.53
2022-11-12T07:01:12.119Z,3.80
2022-11-12T07:03:59.398Z,2.25
2022-11-12T07:06:46.614Z,2.00
2022-11-12T07:09:33.417Z,4.60
2022-11-12T07:12:21.738Z,1.73
2022-11-12T07:15:09.210Z,11.68
2022-11-12T07:17:57.044Z,3.47
2022-11-12T07:20:47.463Z,3.22
2022-11-12T07:23:35.680Z,4.30
2022-11-12T07:26:25.511Z,3.50
2022-11-12T07:29:30.064Z,2.90
2022-11-12T07:32:23.491Z,2.67
2022-11-12T07:35:10.436Z,2.67
2022-11-12T07:37:59.802Z,2.70
2022-11-12T07:40:46.824Z,10.90
2022-11-12T07:43:35.692Z,12.25
2022-11-12T07:46:28.360Z,10.35
2022-11-12T07:49:15.533Z,3.53
2022-11-12T07:52:28.406Z,9.07
2022-11-12T07:55:16.348Z,4.88
2022-11-12T07:58:03.963Z,3.65
2022-11-12T08:00:57.696Z,4.40
2022-11-12T08:03:46.217Z,4.32
2022-11-12T08:06:33.877Z,4.25
2022-11-12T08:09:23.935Z,2.85
2022-11-12T08:15:04.428Z,3.22
2022-11-12T08:17:51.191Z,3.58
2022-11-12T08:20:39.989Z,3.80
2022-11-12T08:23:26.953Z,2.97
2022-11-12T08:26:16.572Z,3.65
2022-11-12T08:29:08.945Z,3.67
2022-11-12T08:32:30.916Z,3.35
2022-11-12T08:35:19.024Z,4.57
2022-11-12T08:38:14.156Z,3.75
2022-11-12T08:41:11.154Z,3.65
2022-11-12T08:43:58.376Z,5.03
2022-11-12T08:46:49.750Z,2.95
2022-11-12T08:49:47.868Z,7.75
2022-11-12T08:52:37.556Z,5.40
2022-11-12T08:55:25.992Z,2.78
2022-11-12T08:58:14.258Z,2.90
2022-11-12T09:01:06.147Z,3.03
2022-11-12T09:03:53.798Z,5.07
2022-11-12T09:06:40.821Z,3.97
2022-11-12T09:09:28.172Z,3.28
2022-11-12T09:12:19.874Z,4.60
2022-11-12T09:15:36.906Z,2.90
2022-11-12T09:18:19.073Z,4.18
2022-11-12T09:21:10.724Z,6.70
2022-11-12T09:24:08.761Z,4.38
2022-11-12T09:26:56.977Z,6.15
2022-11-12T09:29:45.485Z,5.40
2022-11-12T09:32:33.516Z,6.35
2022-11-12T09:35:20.506Z,3.38
2022-11-12T09:38:09.038Z,4.95
2022-11-12T09:41:07.639Z,6.53
2022-11-12T09:44:00.156Z,4.13
2022-11-12T09:46:55.589Z,4.47
2022-11-12T09:49:50.334Z,3.22
2022-11-12T09:52:40.159Z,4.90
2022-11-12T09:55:32.255Z,5.43
2022-11-12T09:58:21.568Z,3.85
2022-11-12T10:01:17.571Z,4.53
2022-11-12T10:04:25.682Z,6.75
2022-11-12T10:07:26.402Z,5.88
2022-11-12T10:10:20.335Z,6.05
2022-11-12T10:13:21.354Z,4.63
2022-11-12T10:16:38.001Z,3.63
2022-11-12T10:19:38.723Z,6.20
2022-11-12T10:22:38.020Z,6.38
2022-11-12T10:25:27.351Z,4.13
2022-11-12T10:28:57.878Z,5.05
2022-11-12T10:31:45.207Z,6.43
2022-11-12T10:34:42.398Z,5.20
2022-11-12T10:37:51.982Z,5.32
2022-11-12T10:40:45.712Z,4.70
2022-11-12T10:43:33.181Z,5.40
2022-11-12T10:46:21.849Z,6.40
2022-11-12T10:49:25.555Z,5.25
2022-11-12T10:52:25.002Z,4.72
2022-11-12T10:55:19.384Z,3.78
2022-11-12T10:58:20.585Z,4.88
2022-11-12T11:01:17.332Z,3.78
2022-11-12T11:04:05.621Z,5.10
2022-11-12T11:07:07.393Z,5.32
2022-11-12T11:09:58.306Z,5.68
2022-11-12T11:12:45.189Z,4.97
2022-11-12T11:15:32.305Z,4.82
2022-11-12T11:18:28.601Z,4.45
2022-11-12T11:21:35.649Z,4.43
2022-11-12T11:24:38.470Z,4.22
2022-11-12T11:27:32.976Z,6.25
2022-11-12T11:30:23.097Z,4.35
2022-11-12T11:33:35.349Z,5.30
2022-11-12T11:36:29.153Z,4.97
2022-11-12T11:39:27.800Z,6.72
2022-11-12T11:42:40.644Z,4.38
2022-11-12T11:45:35.029Z,4.75
2022-11-12T11:48:42.077Z,4.78
2022-11-12T11:51:39.951Z,6.95
2022-11-12T11:54:58.616Z,3.95
2022-11-12T11:57:59.770Z,6.25
2022-11-12T12:00:53.961Z,9.93
2022-11-12T12:03:59.515Z,6.60
2022-11-12T12:07:04.773Z,4.22
2022-11-12T12:10:09.004Z,4.70
2022-11-12T12:13:07.337Z,5.10
2022-11-12T12:16:26.163Z,11.50
2022-11-12T12:19:28.583Z,6.75
2022-11-12T12:22:20.593Z,5.93
2022-11-12T12:25:17.323Z,5.53
2022-11-12T12:28:32.826Z,4.50
2022-11-12T12:31:26.803Z,5.30
2022-11-12T12:34:23.745Z,5.20
2022-11-12T12:37:22.129Z,5.00
2022-11-12T12:40:21.156Z,4.10
2022-11-12T12:43:19.448Z,4.30
2022-11-12T12:46:08.177Z,5.63
2022-11-12T12:49:04.945Z,6.28
2022-11-12T12:52:08.683Z,4.53
2022-11-12T12:54:59.560Z,10.93
2022-11-12T12:57:46.599Z,6.15
2022-11-12T13:00:43.999Z,5.65
2022-11-12T13:04:00.811Z,7.05
2022-11-12T13:06:55.904Z,5.72
2022-11-12T13:09:44.702Z,6.43
2022-11-12T13:13:11.575Z,5.50
2022-11-12T13:16:03.956Z,5.30
2022-11-12T13:19:04.207Z,6.47
2022-11-12T13:22:34.641Z,4.75
2022-11-12T13:25:31.680Z,4.30
2022-11-12T13:28:19.571Z,4.28
2022-11-12T13:31:28.762Z,5.90
2022-11-12T13:34:23.191Z,4.90
2022-11-12T13:37:20.736Z,6.38
2022-11-12T13:43:07.469Z,4.68
2022-11-12T13:45:58.609Z,4.35
2022-11-12T13:48:49.660Z,8.88
2022-11-12T13:51:44.014Z,6.53
2022-11-12T13:54:44.304Z,6.35
2022-11-12T13:57:36.211Z,5.88
2022-11-12T14:00:33.502Z,5.20
2022-11-12T14:03:20.860Z,6.57
2022-11-12T14:06:17.998Z,5.53
2022-11-12T14:09:27.128Z,6.53
2022-11-12T14:12:28.243Z,5.13
2022-11-12T14:15:27.542Z,9.20
2022-11-12T14:18:26.732Z,7.93
2022-11-12T14:21:18.718Z,7.53
2022-11-12T14:24:06.794Z,7.80
2022-11-12T14:26:54.099Z,8.07
2022-11-12T14:29:43.942Z,10.27
2022-11-12T14:32:39.197Z,8.57
2022-11-12T14:35:33.813Z,7.68
2022-11-12T14:38:27.356Z,6.13
2022-11-12T14:41:21.707Z,7.10
2022-11-12T14:44:19.192Z,6.47
2022-11-12T14:47:12.871Z,7.20
2022-11-12T14:50:06.410Z,7.38
2022-11-12T14:52:58.644Z,7.15
2022-11-12T14:55:53.046Z,8.00
2022-11-12T14:58:42.327Z,6.47
2022-11-12T15:02:55.704Z,7.72
2022-11-12T15:04:45.423Z,9.85
2022-11-12T15:07:35.109Z,8.48
2022-11-12T15:10:31.862Z,6.72
2022-11-12T15:13:26.805Z,8.97
2022-11-12T15:16:21.141Z,8.43
2022-11-12T15:19:22.715Z,8.80
2022-11-12T15:22:25.649Z,12.38
2022-11-12T15:26:00.384Z,8.15
2022-11-12T15:29:02.533Z,9.15
2022-11-12T15:31:53.207Z,10.18
2022-11-12T15:34:54.974Z,10.07
2022-11-12T15:37:44.568Z,8.38
2022-11-12T15:40:44.841Z,12.20
2022-11-12T15:43:42.326Z,10.80
2022-11-12T15:46:30.993Z,9.13
2022-11-12T15:49:19.857Z,9.97
2022-11-12T15:52:10.127Z,11.60
2022-11-12T15:54:59.828Z,9.02
2022-11-12T15:57:50.053Z,8.93
2022-11-12T16:00:40.199Z,11.57
2022-11-12T16:03:29.106Z,8.23
2022-11-12T16:06:18.313Z,11.70
2022-11-12T16:09:06.279Z,13.02
2022-11-12T16:11:57.581Z,14.77
2022-11-12T16:14:46.851Z,11.60
2022-11-12T16:17:35.336Z,16.52
2022-11-12T16:20:26.779Z,19.23
2022-11-12T16:23:14.207Z,11.20
2022-11-12T16:26:02.319Z,13.73
2022-11-12T16:28:49.857Z,13.68
2022-11-12T16:31:36.806Z,8.85
2022-11-12T16:34:24.864Z,14.68
2022-11-12T16:37:13.824Z,12.52
2022-11-12T16:40:00.644Z,13.98
2022-11-12T16:42:48.157Z,18.65
2022-11-12T16:45:38.095Z,10.43
2022-11-12T16:48:25.156Z,12.30
2022-11-12T16:51:18.071Z,13.98
2022-11-12T16:54:06.885Z,13.40
2022-11-12T16:56:54.157Z,11.43
2022-11-12T16:59:41.212Z,9.68
2022-11-12T17:02:29.784Z,12.73
2022-11-12T17:05:21.100Z,12.75
2022-11-12T17:08:11.501Z,12.15
2022-11-12T17:13:47.826Z,15.85
2022-11-12T17:16:35.209Z,14.73
2022-11-12T17:19:23.798Z,13.43
2022-11-12T17:22:11.190Z,14.80
2022-11-12T17:24:58.233Z,13.10
2022-11-12T17:27:46.583Z,13.73
2022-11-12T17:30:33.803Z,16.55
2022-11-12T17:33:20.686Z,12.40
2022-11-12T17:36:11.491Z,14.07
2022-11-12T17:39:00.652Z,16.30
2022-11-12T17:41:48.261Z,15.25
2022-11-12T17:44:36.589Z,18.50
2022-11-12T17:47:24.989Z,16.73
2022-11-12T17:50:11.977Z,18.02
2022-11-12T17:52:59.828Z,15.52
2022-11-12T17:55:50.497Z,17.08
2022-11-12T17:58:40.165Z,15.18
2022-11-12T18:01:32.520Z,16.48
2022-11-12T18:04:19.439Z,16.02
2022-11-12T18:07:08.218Z,17.40
2022-11-12T18:09:55.679Z,24.67
2022-11-12T18:12:42.528Z,15.65
2022-11-12T18:15:32.049Z,15.77
2022-11-12T18:18:20.717Z,15.77
2022-11-12T18:21:07.710Z,15.00
2022-11-12T18:23:54.798Z,12.77
2022-11-12T18:26:42.209Z,17.95
2022-11-12T18:29:29.217Z,13.38
2022-11-12T18:32:16.080Z,15.40
2022-11-12T18:35:05.897Z,18.45
2022-11-12T18:37:53.290Z,13.65
2022-11-12T18:40:42.937Z,12.45
2022-11-12T18:43:30.342Z,15.77
2022-11-12T18:46:17.617Z,14.38
2022-11-12T18:49:05.371Z,17.10
2022-11-12T18:51:55.536Z,17.50
2022-11-12T18:54:43.106Z,13.45
2022-11-12T18:57:32.695Z,20.10
2022-11-12T19:00:21.428Z,16.08
2022-11-12T19:03:08.781Z,18.67
2022-11-12T19:05:59.060Z,16.65
2022-11-12T19:08:47.715Z,15.15
2022-11-12T19:11:34.619Z,16.02
2022-11-12T19:14:21.899Z,13.48
2022-11-12T19:17:08.513Z,12.93
2022-11-12T19:19:55.565Z,12.18
2022-11-12T19:22:42.582Z,12.98
2022-11-12T19:25:30.531Z,14.60
2022-11-12T19:28:17.219Z,14.07
2022-11-12T19:31:05.342Z,10.63
2022-11-12T19:33:52.185Z,19.55
2022-11-12T19:36:43.783Z,16.88
2022-11-12T19:39:31.405Z,15.77
2022-11-12T19:42:19.922Z,15.48
2022-11-12T19:45:07.973Z,17.05
2022-11-12T19:47:56.034Z,14.45
2022-11-12T19:50:43.581Z,12.88
2022-11-12T19:53:33.960Z,15.13
2022-11-12T19:56:22.293Z,18.65
2022-11-12T19:59:10.973Z,15.43
2022-11-12T20:01:58.126Z,14.32
2022-11-12T20:04:45.236Z,17.70
2022-11-12T20:07:32.585Z,14.85
2022-11-12T20:10:22.035Z,16.38
2022-11-12T20:13:09.587Z,11.57
2022-11-12T20:15:59.444Z,13.77
2022-11-12T20:18:51.028Z,14.52
2022-11-12T20:21:38.321Z,14.10
2022-11-12T20:24:25.299Z,12.88
2022-11-12T20:27:14.997Z,15.48
2022-11-12T20:32:50.659Z,15.77
2022-11-12T20:35:38.976Z,14.27
2022-11-12T20:38:26.502Z,14.68
2022-11-12T20:41:17.131Z,14.43
2022-11-12T20:44:04.472Z,14.57
2022-11-12T20:46:51.930Z,12.82
2022-11-12T20:49:43.479Z,13.98
2022-11-12T20:52:33.059Z,12.55
2022-11-12T20:55:20.651Z,14.90
2022-11-12T20:58:08.444Z,18.10
2022-11-12T21:01:03.452Z,13.43
2022-11-12T21:03:50.822Z,12.82
2022-11-12T21:06:39.856Z,14.55
2022-11-12T21:09:28.967Z,17.13
2022-11-12T21:12:24.760Z,12.73
2022-11-12T21:15:12.148Z,12.68
2022-11-12T21:17:59.255Z,15.52
2022-11-12T21:20:49.405Z,12.43
2022-11-12T21:23:39.349Z,21.77
2022-11-12T21:26:27.688Z,13.85
2022-11-12T21:29:19.056Z,12.85
2022-11-12T21:32:07.734Z,13.27
2022-11-12T21:34:55.608Z,14.68
2022-11-12T21:37:42.003Z,12.63
2022-11-12T21:40:30.286Z,12.70
2022-11-12T21:43:17.177Z,13.48
2022-11-12T21:46:04.258Z,13.10
2022-11-12T21:48:54.788Z,15.25
2022-11-12T21:51:42.607Z,13.48
2022-11-12T21:54:29.767Z,10.32
2022-11-12T21:57:20.346Z,9.30
2022-11-12T22:00:40.204Z,14.20
2022-11-12T22:03:18.959Z,15.07
2022-11-12T22:06:07.825Z,14.68
2022-11-12T22:08:59.049Z,12.07
2022-11-12T22:11:46.043Z,15.80
2022-11-12T22:14:34.571Z,15.07
2022-11-12T22:17:24.345Z,14.05
2022-11-12T22:20:11.561Z,18.00
2022-11-12T22:22:59.849Z,15.63
2022-11-12T22:25:50.614Z,17.13
2022-11-12T22:28:37.588Z,12.60
2022-11-12T22:31:27.372Z,11.27
2022-11-12T22:34:16.179Z,12.32
2022-11-12T22:37:06.146Z,9.23
2022-11-12T22:39:55.009Z,9.65
2022-11-12T22:42:42.017Z,9.65
2022-11-12T22:45:28.976Z,8.25
2022-11-12T22:48:17.166Z,8.80
2022-11-12T22:51:07.313Z,7.68
2022-11-12T22:56:43.191Z,8.32
2022-11-12T22:59:31.106Z,9.77
2022-11-12T23:02:24.598Z,12.35
2022-11-12T23:05:12.683Z,11.35
2022-11-12T23:08:00.941Z,14.32
2022-11-12T23:10:47.797Z,11.75
2022-11-12T23:13:35.646Z,14.70
2022-11-12T23:16:24.254Z,12.20
2022-11-12T23:19:11.204Z,10.83
2022-11-12T23:22:05.249Z,12.15
2022-11-12T23:24:54.502Z,10.23
2022-11-12T23:27:41.545Z,11.65
2022-11-12T23:30:30.007Z,10.30
2022-11-12T23:33:18.567Z,12.48
2022-11-12T23:36:07.999Z,8.40
2022-11-12T23:38:57.145Z,13.02
2022-11-12T23:41:48.205Z,12.57
2022-11-12T23:44:35.400Z,11.00
2022-11-12T23:47:22.788Z,11.55
2022-11-12T23:50:11.783Z,10.30
2022-11-12T23:52:58.917Z,10.45
2022-11-12T23:55:49.308Z,8.38
2022-11-12T23:58:37.447Z,10.18
